Whitesboro, TX (76273)

10:03 PM CST on March 01, 2015 (GMT -0600)
Near Downtown | Change Station
CLOSE
Current Station
Personal Weather Station
Location: Whitesboro, TX
Elevation: 816 ft
Nearby Weather Stations

Elev 816 ft 33.66 °N, 96.91 °W | Updated 2 minutes ago

Overcast
Overcast
33.8 °F
Feels Like 27 °F
N
8.0
Wind Variable Wind from NNE

Today
High -- | Low -- °F
--% Chance of Precip.
Yesterday
High -- | Low -- °F
Precip. -- in
6:56 AM 6:24 PM
Waxing Gibbous, 89% visible
Pressure 30.41 in
Visibility 10.0 miles
Clouds Overcast 1000 ft
Windchill 27 °F
Dew Point 34 °F
Humidity 100%
Rainfall 0.07 in
Snow Depth Not available.
UV 0 out of 12
Pollen 6.50 out of 12
Air Quality Not available.
Flu Activity Not available.
METAR KGYI 020355Z AUTO 36011KT 10SM OVC010 02/02 A3041 RMK AO2 T00210018

More Conditions Fewer Conditions

Pressure 30.41 in
Visibility 10.0 miles
Clouds Overcast 1000 ft
Windchill 27 °F
Dew Point 34 °F
Humidity 100%
Rainfall 0.07 in
Snow Depth Not available.
UV 0 out of 12
Pollen 6.50 out of 12
Air Quality Not available.
Flu Activity Not available.
METAR KGYI 020355Z AUTO 36011KT 10SM OVC010 02/02 A3041 RMK AO2 T00210018

More Conditions Fewer Conditions

Nowcast | as of 8:49 PM CST on March 1, 2015

Patchy very light rain or drizzle will continue to develop across most of central and North Texas through the predawn hours Monday. Temperatures will remain above freezing...thus no icing of bridges and overpasses is expected. Patchy light fog is also expected to develop after midnight. Rainfall amounts will be very light and average a trace to a few hundredths. Otherwise...temperatures will remain steady in the 30s to lower 40s across the far southeast. North winds around 10 mph will continue overnight creating wind chills mostly in the 20s and lower 30s.

×

10-Day Weather Forecast

Almanac

Astronomy

Mar. 01, 2015 Rise Set
Actual Time
Civil Twilight
Nautical Twilight
Astronomical Twilight
Moon
Length of Visible Light
Length of Day
Tomorrow will be .
, % of the Moon is Illuminated

Today's Extremes

State Highs State Lows

Community

WunderPhotos

Upload Photos

1,801,722 photos uploaded!

WunderBlogs® & News

Nearby

Air Quality

  Air Quality AQ Index Pollutant
Not available.

Snow Depth

Station Depth Elevation

Earthquake Activity

City Distance Mag. Time & Date
Minimum magnitude displayed is 2.5.

Coastal Water Temperatures

Place Temperature

Nearby Weather Stations